createdAt,value
2018-04-16T00:00:11.627Z,3.63
2018-04-16T00:05:15.197Z,3.90
2018-04-16T00:10:18.387Z,3.83
2018-04-16T00:15:22.323Z,4.10
2018-04-16T00:20:26.639Z,4.33
2018-04-16T00:25:29.848Z,3.80
2018-04-16T00:30:33.452Z,3.67
2018-04-16T00:35:42.102Z,4.03
2018-04-16T00:40:50.739Z,3.90
2018-04-16T00:45:59.605Z,4.00
2018-04-16T00:51:09.523Z,4.37
2018-04-16T00:56:18.995Z,4.40
2018-04-16T01:01:27.712Z,4.33
2018-04-16T01:06:37.211Z,4.00
2018-04-16T01:11:45.860Z,4.20
2018-04-16T01:16:55.357Z,4.00
2018-04-16T01:22:04.352Z,3.90
2018-04-16T01:27:13.815Z,3.70
2018-04-16T01:32:22.935Z,3.77
2018-04-16T01:37:31.643Z,4.13
2018-04-16T01:42:40.444Z,4.13
2018-04-16T01:47:49.484Z,4.20
2018-04-16T01:52:58.993Z,4.07
2018-04-16T01:58:07.665Z,4.17
2018-04-16T02:03:17.495Z,3.80
2018-04-16T02:08:26.402Z,4.03
2018-04-16T02:13:36.243Z,4.23
2018-04-16T02:18:44.985Z,4.20
2018-04-16T02:23:53.547Z,4.60
2018-04-16T02:29:02.690Z,4.30
2018-04-16T02:34:12.341Z,4.47
2018-04-16T02:39:21.843Z,4.70
2018-04-16T02:44:30.561Z,4.20
2018-04-16T02:49:39.285Z,4.43
2018-04-16T02:54:48.371Z,4.80
2018-04-16T02:59:56.904Z,4.40
2018-04-16T03:05:06.081Z,4.60
2018-04-16T03:10:14.656Z,4.20
2018-04-16T03:15:23.608Z,4.40
2018-04-16T03:20:33.440Z,4.40
2018-04-16T03:25:42.066Z,4.53
2018-04-16T03:30:51.580Z,4.00
2018-04-16T03:36:00.180Z,3.90
2018-04-16T03:41:08.847Z,4.50
2018-04-16T03:52:13.674Z,5.30
2018-04-16T03:57:16.783Z,5.50
2018-04-16T04:02:19.916Z,5.50
2018-04-16T04:07:23.088Z,5.87
2018-04-16T04:12:26.283Z,5.30
2018-04-16T04:17:29.509Z,5.50
2018-04-16T04:22:51.707Z,5.37
2018-04-16T04:28:12.701Z,5.63
2018-04-16T04:33:15.919Z,5.80
2018-04-16T04:38:19.455Z,5.43
2018-04-16T04:43:22.676Z,5.20
2018-04-16T04:48:27.106Z,5.30
2018-04-16T04:53:30.250Z,5.30
2018-04-16T04:58:33.771Z,5.77
2018-04-16T05:03:36.951Z,5.97
2018-04-16T05:08:40.834Z,5.87
2018-04-16T05:13:45.107Z,6.30
2018-04-16T05:18:48.174Z,5.53
2018-04-16T05:23:52.011Z,4.80
2018-04-16T05:28:55.110Z,4.93
2018-04-16T05:33:58.202Z,4.53
2018-04-16T05:39:01.287Z,4.33
2018-04-16T05:44:05.891Z,4.03
2018-04-16T05:49:08.968Z,4.77
2018-04-16T05:54:13.400Z,4.17
2018-04-16T05:59:18.241Z,4.10
2018-04-16T06:04:21.342Z,3.53
2018-04-16T06:09:25.605Z,3.60
2018-04-16T06:14:30.015Z,3.60
2018-04-16T06:19:33.106Z,3.90
2018-04-16T06:24:37.729Z,3.60
2018-04-16T06:29:40.809Z,3.40
2018-04-16T06:34:45.265Z,3.27
2018-04-16T06:39:48.350Z,2.77
2018-04-16T06:44:52.952Z,3.30
2018-04-16T06:49:57.405Z,2.90
2018-04-16T06:55:00.882Z,3.57
2018-04-16T07:00:04.029Z,3.47
2018-04-16T07:05:07.128Z,3.95
2018-04-16T07:10:11.000Z,4.17
2018-04-16T07:15:14.817Z,4.63
2018-04-16T07:20:17.900Z,5.43
2018-04-16T07:25:23.035Z,4.30
2018-04-16T07:30:26.809Z,4.80
2018-04-16T07:35:29.886Z,4.90
2018-04-16T07:40:34.346Z,4.63
2018-04-16T07:45:37.825Z,4.63
2018-04-16T07:50:41.622Z,4.90
2018-04-16T07:55:46.912Z,4.63
2018-04-16T08:00:50.009Z,4.53
2018-04-16T08:05:54.233Z,4.80
2018-04-16T08:10:58.686Z,4.27
2018-04-16T08:16:02.194Z,4.30
2018-04-16T08:21:06.158Z,5.20
2018-04-16T08:26:10.983Z,4.20
2018-04-16T08:31:14.074Z,3.73
2018-04-16T08:36:18.906Z,3.60
2018-04-16T08:41:22.456Z,3.67
2018-04-16T08:46:26.894Z,4.63
2018-04-16T08:51:30.810Z,4.80
2018-04-16T08:56:35.245Z,5.30
2018-04-16T09:01:39.523Z,4.97
2018-04-16T09:06:44.103Z,5.40
2018-04-16T09:11:47.641Z,5.40
2018-04-16T09:16:52.970Z,5.80
2018-04-16T09:21:56.448Z,5.40
2018-04-16T09:27:00.320Z,5.77
2018-04-16T09:32:03.397Z,5.77
2018-04-16T09:37:07.618Z,6.30
2018-04-16T09:42:11.462Z,6.00
2018-04-16T09:47:15.306Z,6.90
2018-04-16T09:52:19.533Z,6.53
2018-04-16T09:57:23.026Z,7.57
2018-04-16T10:02:27.610Z,8.00
2018-04-16T10:07:32.040Z,7.53
2018-04-16T10:12:35.890Z,7.57
2018-04-16T10:17:40.350Z,7.70
2018-04-16T10:22:45.739Z,7.97
2018-04-16T10:27:48.834Z,5.80
2018-04-16T10:32:53.047Z,5.77
2018-04-16T10:37:56.890Z,5.30
2018-04-16T10:43:01.110Z,4.73
2018-04-16T10:48:04.205Z,4.20
2018-04-16T10:53:07.289Z,3.83
2018-04-16T10:58:11.733Z,4.20
2018-04-16T11:03:15.953Z,4.37
2018-04-16T11:08:19.496Z,4.70
2018-04-16T11:13:23.698Z,4.23
2018-04-16T11:18:27.931Z,4.77
2018-04-16T11:23:31.010Z,4.60
2018-04-16T11:28:34.934Z,4.30
2018-04-16T11:33:39.119Z,3.93
2018-04-16T11:38:42.978Z,4.03
2018-04-16T11:43:47.414Z,3.70
2018-04-16T11:48:50.910Z,4.13
2018-04-16T11:53:55.338Z,5.57
2018-04-16T11:58:58.431Z,5.57
2018-04-16T12:04:02.885Z,5.27
2018-04-16T12:09:06.673Z,5.23
2018-04-16T12:14:10.159Z,4.67
2018-04-16T12:19:14.020Z,4.87
2018-04-16T12:24:17.130Z,5.73
2018-04-16T12:29:20.281Z,5.22
2018-04-16T12:34:24.118Z,5.77
2018-04-16T12:39:28.338Z,4.87
2018-04-16T12:44:32.177Z,5.50
2018-04-16T12:49:36.598Z,4.77
2018-04-16T12:54:40.666Z,4.10
2018-04-16T12:59:45.128Z,4.30
2018-04-16T13:04:48.202Z,4.20
2018-04-16T13:09:51.286Z,3.87
2018-04-16T13:14:55.134Z,4.30
2018-04-16T13:20:00.238Z,4.37
2018-04-16T13:25:04.128Z,4.50
2018-04-16T13:30:07.618Z,3.70
2018-04-16T13:35:11.106Z,4.07
2018-04-16T13:40:14.577Z,4.03
2018-04-16T13:45:18.054Z,4.37
2018-04-16T13:50:22.274Z,3.63
2018-04-16T13:55:26.747Z,3.37
2018-04-16T14:00:30.214Z,3.57
2018-04-16T14:05:34.654Z,3.57
2018-04-16T14:10:39.294Z,2.93
2018-04-16T14:15:42.371Z,3.63
2018-04-16T14:20:45.487Z,3.57
2018-04-16T14:25:48.580Z,3.63
2018-04-16T14:30:51.654Z,3.67
2018-04-16T14:35:55.912Z,3.57
2018-04-16T14:41:00.104Z,3.57
2018-04-16T14:46:03.970Z,3.53
2018-04-16T14:51:08.185Z,3.40
2018-04-16T14:56:11.691Z,2.70
2018-04-16T15:01:15.535Z,3.37
2018-04-16T15:06:19.382Z,2.90
2018-04-16T15:11:23.806Z,2.87
2018-04-16T15:16:26.883Z,3.00
2018-04-16T15:21:29.986Z,3.07
2018-04-16T15:26:33.062Z,2.80
2018-04-16T15:31:36.559Z,2.57
2018-04-16T15:36:40.421Z,2.97
2018-04-16T15:41:43.508Z,2.20
2018-04-16T15:46:47.745Z,2.50
2018-04-16T15:51:51.587Z,2.50
2018-04-16T15:56:54.671Z,2.90
2018-04-16T16:01:57.763Z,2.50
2018-04-16T16:07:00.847Z,2.30
2018-04-16T16:12:05.278Z,2.60
2018-04-16T16:17:09.494Z,2.50
2018-04-16T16:22:13.364Z,2.40
2018-04-16T16:27:17.813Z,2.37
2018-04-16T16:32:20.890Z,2.30
2018-04-16T16:37:25.323Z,3.13
2018-04-16T16:42:29.919Z,3.27
2018-04-16T16:47:33.767Z,2.50
2018-04-16T16:52:36.846Z,3.03
2018-04-16T16:57:39.938Z,2.67
2018-04-16T17:02:44.390Z,2.50
2018-04-16T17:07:48.239Z,2.60
2018-04-16T17:12:52.669Z,2.17
2018-04-16T17:17:55.754Z,2.13
2018-04-16T17:22:58.855Z,2.10
2018-04-16T17:28:02.056Z,2.23
2018-04-16T17:33:05.929Z,2.33
2018-04-16T17:38:17.822Z,2.23
2018-04-16T17:43:21.454Z,1.80
2018-04-16T17:48:26.971Z,2.13
2018-04-16T17:53:30.883Z,2.47
2018-04-16T17:58:35.888Z,2.47
2018-04-16T18:03:39.947Z,2.80
2018-04-16T18:08:43.179Z,2.23
2018-04-16T18:13:48.320Z,2.20
2018-04-16T18:18:52.467Z,2.27
2018-04-16T18:23:57.959Z,2.17
2018-04-16T18:29:01.031Z,2.63
2018-04-16T18:34:04.884Z,2.80
2018-04-16T18:39:12.754Z,2.80
2018-04-16T18:44:15.978Z,3.00
2018-04-16T18:49:19.483Z,2.73
2018-04-16T18:54:23.515Z,2.60
2018-04-16T18:59:27.701Z,2.47
2018-04-16T19:04:30.902Z,2.83
2018-04-16T19:09:34.101Z,3.27
2018-04-16T19:14:37.367Z,4.20
2018-04-16T19:19:40.643Z,2.90
2018-04-16T19:24:45.420Z,3.30
2018-04-16T19:29:49.001Z,3.33
2018-04-16T19:34:58.343Z,3.07
2018-04-16T19:40:01.541Z,2.60
2018-04-16T19:45:05.120Z,2.93
2018-04-16T19:50:09.125Z,2.80
2018-04-16T19:55:12.270Z,3.20
2018-04-16T20:00:15.904Z,3.37
2018-04-16T20:05:19.476Z,4.07
2018-04-16T20:10:24.582Z,3.40
2018-04-16T20:15:27.769Z,3.60
2018-04-16T20:20:31.710Z,3.80
2018-04-16T20:25:34.888Z,3.30
2018-04-16T20:30:38.948Z,3.23
2018-04-16T20:35:42.912Z,3.50
2018-04-16T20:40:46.223Z,3.40
2018-04-16T20:45:49.421Z,3.67
2018-04-16T20:50:53.342Z,4.67
2018-04-16T20:55:57.295Z,3.60
2018-04-16T21:01:00.468Z,3.63
2018-04-16T21:06:20.906Z,4.10
2018-04-16T21:11:25.230Z,3.80
2018-04-16T21:16:29.883Z,3.50
2018-04-16T21:21:33.058Z,3.90
2018-04-16T21:26:36.243Z,3.77
2018-04-16T21:31:39.427Z,3.70
2018-04-16T21:36:42.638Z,3.90
2018-04-16T21:42:01.207Z,3.67
2018-04-16T21:47:04.421Z,3.73
2018-04-16T21:52:07.546Z,3.90
2018-04-16T21:57:11.118Z,3.30
2018-04-16T22:02:14.978Z,3.47
2018-04-16T22:07:18.066Z,3.87
2018-04-16T22:12:21.147Z,4.00
2018-04-16T22:17:24.991Z,3.93
2018-04-16T22:22:28.090Z,4.10
2018-04-16T22:27:32.306Z,4.50
2018-04-16T22:32:35.403Z,5.10
2018-04-16T22:37:38.590Z,5.40
2018-04-16T22:42:41.813Z,4.40
2018-04-16T22:47:44.939Z,4.10
2018-04-16T22:52:48.880Z,3.93
2018-04-16T22:57:52.844Z,4.07
2018-04-16T23:02:55.995Z,4.00
2018-04-16T23:07:59.177Z,3.93
2018-04-16T23:13:02.319Z,4.20
2018-04-16T23:18:05.487Z,4.10
2018-04-16T23:23:08.671Z,4.82
2018-04-16T23:28:12.232Z,4.40
2018-04-16T23:33:15.403Z,4.37
2018-04-16T23:38:18.563Z,4.22
2018-04-16T23:43:22.863Z,4.97
2018-04-16T23:48:26.468Z,5.20
2018-04-16T23:53:30.435Z,4.70
2018-04-16T23:58:33.583Z,4.85
